ウラジオストク の空港の天気 - METARとTAF

ウラジオストク空港 ( UHWW / VVO ) - ロシア ウラジオストク
飛行場実況気象(Metar)
観測時間02/28 06:30 +10 (02/27 20:30 UTC)
風向・風速北 2m/s
視程7000m
天気現象
全天の8割程度の雲 雲底高度 400m
気温-3℃
湿度100%
気圧1022hPa
METARUHWW 272030Z 01002MPS 7000 BKN013 M03/M03 Q1022 R25L/0///70 NOSIG RMK QFE765
過去の天気等 Google飛行場航空写真 Wunderground天気予報

過去48時間のMETAR

飛行場予報(TAF)
発表時間: 2/28 05:57 +10 (2/27 19:57 UTC)
予報対象時間: 28日7時 +10 ~ 1日7時 +10
風向・風速南 3m/s
視程2,100m
天気現象もや
全天の8割程度の雲 雲底高度 210m
28日12時 +10 ~ 28日14時 +10 に徐々に
視程5,000m
天気現象煙霧
全天の8割程度の雲 雲底高度 610m
28日16時 +10 ~ 28日19時 +10 に徐々に
視程2,100m
天気現象弱いしゅう雪雨
全天の8割程度の積乱雲 雲底高度 460m
TAF UHWW 271957Z 2721/2821 18003MPS 2100 BR BKN007
BECMG 2802/2804 5000 HZ BKN020
BECMG 2806/2809 2100 -SHSNRA BKN015CB